sensor_id;sensor_type;location;lat;lon;timestamp;P1;durP1;ratioP1;P2;durP2;ratioP2
60492;SDS011;46341;51.290;-2.474;2022-12-07T00:01:35;24.23;;;17.42;;
60492;SDS011;46341;51.290;-2.474;2022-12-07T00:04:02;25.52;;;17.48;;
60492;SDS011;46341;51.290;-2.474;2022-12-07T00:06:33;27.88;;;17.45;;
60492;SDS011;46341;51.290;-2.474;2022-12-07T00:08:59;24.08;;;16.45;;
60492;SDS011;46341;51.290;-2.474;2022-12-07T00:11:26;23.33;;;17.33;;
60492;SDS011;46341;51.290;-2.474;2022-12-07T00:13:53;24.80;;;17.55;;
60492;SDS011;46341;51.290;-2.474;2022-12-07T00:16:21;24.45;;;16.98;;
60492;SDS011;46341;51.290;-2.474;2022-12-07T00:21:15;22.58;;;17.83;;
60492;SDS011;46341;51.290;-2.474;2022-12-07T00:23:43;24.27;;;17.58;;
60492;SDS011;46341;51.290;-2.474;2022-12-07T00:26:10;26.77;;;18.25;;
60492;SDS011;46341;51.290;-2.474;2022-12-07T00:28:37;19.13;;;15.38;;
60492;SDS011;46341;51.290;-2.474;2022-12-07T00:31:04;22.38;;;17.52;;
60492;SDS011;46341;51.290;-2.474;2022-12-07T00:33:32;21.17;;;16.30;;
60492;SDS011;46341;51.290;-2.474;2022-12-07T00:35:59;22.45;;;17.35;;
60492;SDS011;46341;51.290;-2.474;2022-12-07T00:38:27;21.67;;;16.23;;
60492;SDS011;46341;51.290;-2.474;2022-12-07T00:43:19;22.25;;;16.48;;
60492;SDS011;46341;51.290;-2.474;2022-12-07T00:45:46;20.73;;;16.85;;
60492;SDS011;46341;51.290;-2.474;2022-12-07T00:48:12;24.88;;;18.83;;
60492;SDS011;46341;51.290;-2.474;2022-12-07T00:50:39;20.75;;;17.27;;
60492;SDS011;46341;51.290;-2.474;2022-12-07T00:53:05;27.15;;;17.90;;
60492;SDS011;46341;51.290;-2.474;2022-12-07T00:55:35;22.70;;;17.98;;
60492;SDS011;46341;51.290;-2.474;2022-12-07T00:58:02;21.35;;;17.50;;
60492;SDS011;46341;51.290;-2.474;2022-12-07T01:00:29;24.17;;;16.92;;
60492;SDS011;46341;51.290;-2.474;2022-12-07T01:02:55;23.50;;;17.33;;
60492;SDS011;46341;51.290;-2.474;2022-12-07T01:05:22;24.08;;;16.73;;
60492;SDS011;46341;51.290;-2.474;2022-12-07T01:07:48;21.45;;;16.17;;
60492;SDS011;46341;51.290;-2.474;2022-12-07T01:10:15;23.88;;;16.67;;
60492;SDS011;46341;51.290;-2.474;2022-12-07T01:12:41;22.38;;;16.45;;
60492;SDS011;46341;51.290;-2.474;2022-12-07T01:15:08;22.63;;;16.80;;
60492;SDS011;46341;51.290;-2.474;2022-12-07T01:17:34;25.48;;;16.67;;
60492;SDS011;46341;51.290;-2.474;2022-12-07T01:20:01;24.50;;;17.27;;
60492;SDS011;46341;51.290;-2.474;2022-12-07T01:22:28;22.38;;;16.60;;
60492;SDS011;46341;51.290;-2.474;2022-12-07T01:24:54;24.90;;;16.88;;
60492;SDS011;46341;51.290;-2.474;2022-12-07T01:27:21;22.73;;;16.80;;
60492;SDS011;46341;51.290;-2.474;2022-12-07T01:29:47;23.15;;;17.35;;
60492;SDS011;46341;51.290;-2.474;2022-12-07T01:32:14;24.40;;;17.00;;
60492;SDS011;46341;51.290;-2.474;2022-12-07T01:34:40;23.98;;;16.98;;
60492;SDS011;46341;51.290;-2.474;2022-12-07T01:37:06;27.50;;;17.58;;
60492;SDS011;46341;51.290;-2.474;2022-12-07T01:39:33;24.23;;;16.67;;
60492;SDS011;46341;51.290;-2.474;2022-12-07T01:41:59;26.60;;;17.20;;
60492;SDS011;46341;51.290;-2.474;2022-12-07T01:44:26;23.88;;;16.08;;
60492;SDS011;46341;51.290;-2.474;2022-12-07T01:46:54;28.27;;;16.95;;
60492;SDS011;46341;51.290;-2.474;2022-12-07T01:51:48;24.13;;;17.17;;
60492;SDS011;46341;51.290;-2.474;2022-12-07T01:54:15;23.85;;;16.52;;
60492;SDS011;46341;51.290;-2.474;2022-12-07T01:56:44;21.92;;;16.58;;
60492;SDS011;46341;51.290;-2.474;2022-12-07T01:59:12;22.00;;;16.23;;
60492;SDS011;46341;51.290;-2.474;2022-12-07T02:01:39;22.92;;;16.13;;
60492;SDS011;46341;51.290;-2.474;2022-12-07T02:04:06;26.23;;;16.95;;
60492;SDS011;46341;51.290;-2.474;2022-12-07T02:06:32;21.65;;;16.00;;
60492;SDS011;46341;51.290;-2.474;2022-12-07T02:08:59;23.90;;;16.15;;
60492;SDS011;46341;51.290;-2.474;2022-12-07T02:11:25;22.88;;;16.33;;
60492;SDS011;46341;51.290;-2.474;2022-12-07T02:13:52;22.90;;;15.93;;
60492;SDS011;46341;51.290;-2.474;2022-12-07T02:16:25;21.77;;;15.50;;
60492;SDS011;46341;51.290;-2.474;2022-12-07T02:21:40;21.70;;;16.13;;
60492;SDS011;46341;51.290;-2.474;2022-12-07T02:29:27;21.98;;;15.73;;
60492;SDS011;46341;51.290;-2.474;2022-12-07T02:32:00;24.40;;;15.80;;
60492;SDS011;46341;51.290;-2.474;2022-12-07T02:37:09;21.42;;;16.23;;
60492;SDS011;46341;51.290;-2.474;2022-12-07T02:39:50;23.63;;;15.55;;
60492;SDS011;46341;51.290;-2.474;2022-12-07T02:42:19;23.48;;;16.02;;
60492;SDS011;46341;51.290;-2.474;2022-12-07T02:44:49;24.92;;;16.58;;
60492;SDS011;46341;51.290;-2.474;2022-12-07T02:47:16;22.65;;;16.15;;
60492;SDS011;46341;51.290;-2.474;2022-12-07T02:49:43;22.52;;;17.23;;
60492;SDS011;46341;51.290;-2.474;2022-12-07T02:52:10;22.20;;;16.02;;
60492;SDS011;46341;51.290;-2.474;2022-12-07T02:54:36;21.33;;;15.40;;
60492;SDS011;46341;51.290;-2.474;2022-12-07T02:57:07;23.73;;;16.20;;
60492;SDS011;46341;51.290;-2.474;2022-12-07T03:05:25;22.73;;;15.88;;
60492;SDS011;46341;51.290;-2.474;2022-12-07T03:15:43;19.58;;;13.93;;
60492;SDS011;46341;51.290;-2.474;2022-12-07T03:20:39;21.23;;;14.50;;
60492;SDS011;46341;51.290;-2.474;2022-12-07T03:23:06;21.80;;;14.90;;
60492;SDS011;46341;51.290;-2.474;2022-12-07T03:25:38;21.85;;;15.68;;
60492;SDS011;46341;51.290;-2.474;2022-12-07T03:28:06;24.15;;;16.05;;
60492;SDS011;46341;51.290;-2.474;2022-12-07T03:30:36;23.33;;;16.30;;
60492;SDS011;46341;51.290;-2.474;2022-12-07T03:33:12;22.27;;;16.23;;
60492;SDS011;46341;51.290;-2.474;2022-12-07T03:35:40;20.67;;;15.30;;
60492;SDS011;46341;51.290;-2.474;2022-12-07T03:38:45;19.92;;;14.70;;
60492;SDS011;46341;51.290;-2.474;2022-12-07T03:41:06;23.08;;;15.02;;
60492;SDS011;46341;51.290;-2.474;2022-12-07T03:43:34;21.50;;;14.88;;
60492;SDS011;46341;51.290;-2.474;2022-12-07T03:48:41;22.70;;;15.80;;
60492;SDS011;46341;51.290;-2.474;2022-12-07T03:56:02;23.30;;;15.88;;
60492;SDS011;46341;51.290;-2.474;2022-12-07T03:58:29;21.57;;;15.47;;
60492;SDS011;46341;51.290;-2.474;2022-12-07T04:00:55;21.05;;;15.60;;
60492;SDS011;46341;51.290;-2.474;2022-12-07T04:03:22;22.83;;;15.90;;
60492;SDS011;46341;51.290;-2.474;2022-12-07T04:05:48;23.58;;;16.48;;
60492;SDS011;46341;51.290;-2.474;2022-12-07T04:08:15;20.50;;;14.93;;
60492;SDS011;46341;51.290;-2.474;2022-12-07T04:10:41;22.63;;;15.07;;
60492;SDS011;46341;51.290;-2.474;2022-12-07T04:13:08;23.27;;;15.77;;
60492;SDS011;46341;51.290;-2.474;2022-12-07T04:15:34;20.92;;;15.75;;
60492;SDS011;46341;51.290;-2.474;2022-12-07T04:18:01;22.77;;;15.13;;
60492;SDS011;46341;51.290;-2.474;2022-12-07T04:20:27;25.75;;;16.63;;
60492;SDS011;46341;51.290;-2.474;2022-12-07T04:22:53;26.23;;;16.08;;
60492;SDS011;46341;51.290;-2.474;2022-12-07T04:25:20;25.38;;;16.10;;
60492;SDS011;46341;51.290;-2.474;2022-12-07T04:27:46;23.73;;;16.52;;
60492;SDS011;46341;51.290;-2.474;2022-12-07T04:30:13;23.65;;;16.60;;
60492;SDS011;46341;51.290;-2.474;2022-12-07T04:32:39;26.42;;;17.17;;
60492;SDS011;46341;51.290;-2.474;2022-12-07T04:35:06;23.13;;;16.65;;
60492;SDS011;46341;51.290;-2.474;2022-12-07T04:37:32;23.88;;;17.00;;
60492;SDS011;46341;51.290;-2.474;2022-12-07T04:39:59;19.58;;;14.82;;
60492;SDS011;46341;51.290;-2.474;2022-12-07T04:42:26;24.27;;;15.53;;
60492;SDS011;46341;51.290;-2.474;2022-12-07T04:44:52;24.42;;;15.48;;
60492;SDS011;46341;51.290;-2.474;2022-12-07T04:47:19;22.45;;;14.88;;
60492;SDS011;46341;51.290;-2.474;2022-12-07T04:49:45;21.25;;;14.38;;
60492;SDS011;46341;51.290;-2.474;2022-12-07T04:52:11;20.40;;;13.93;;
60492;SDS011;46341;51.290;-2.474;2022-12-07T04:54:38;21.60;;;15.05;;
60492;SDS011;46341;51.290;-2.474;2022-12-07T04:57:04;22.65;;;15.70;;
60492;SDS011;46341;51.290;-2.474;2022-12-07T04:59:31;22.63;;;15.52;;
60492;SDS011;46341;51.290;-2.474;2022-12-07T05:01:57;26.42;;;15.85;;
60492;SDS011;46341;51.290;-2.474;2022-12-07T05:04:24;21.48;;;15.52;;
60492;SDS011;46341;51.290;-2.474;2022-12-07T05:06:50;21.75;;;15.45;;
60492;SDS011;46341;51.290;-2.474;2022-12-07T05:09:16;20.58;;;15.10;;
60492;SDS011;46341;51.290;-2.474;2022-12-07T05:11:43;20.45;;;15.32;;
60492;SDS011;46341;51.290;-2.474;2022-12-07T05:14:16;22.85;;;14.75;;
60492;SDS011;46341;51.290;-2.474;2022-12-07T05:16:43;20.40;;;15.80;;
60492;SDS011;46341;51.290;-2.474;2022-12-07T05:19:10;25.13;;;16.13;;
60492;SDS011;46341;51.290;-2.474;2022-12-07T05:21:37;23.70;;;15.43;;
60492;SDS011;46341;51.290;-2.474;2022-12-07T05:24:04;19.90;;;15.23;;
60492;SDS011;46341;51.290;-2.474;2022-12-07T05:26:31;23.50;;;15.27;;
60492;SDS011;46341;51.290;-2.474;2022-12-07T05:28:57;20.60;;;14.98;;
60492;SDS011;46341;51.290;-2.474;2022-12-07T05:31:24;21.65;;;15.88;;
60492;SDS011;46341;51.290;-2.474;2022-12-07T05:33:51;21.93;;;14.87;;
60492;SDS011;46341;51.290;-2.474;2022-12-07T05:36:18;22.40;;;15.07;;
60492;SDS011;46341;51.290;-2.474;2022-12-07T05:38:44;22.50;;;15.07;;
60492;SDS011;46341;51.290;-2.474;2022-12-07T05:41:15;23.35;;;15.38;;
60492;SDS011;46341;51.290;-2.474;2022-12-07T05:44:00;22.08;;;15.20;;
60492;SDS011;46341;51.290;-2.474;2022-12-07T05:46:27;22.67;;;16.02;;
60492;SDS011;46341;51.290;-2.474;2022-12-07T05:48:53;19.92;;;15.18;;
60492;SDS011;46341;51.290;-2.474;2022-12-07T05:51:20;21.60;;;15.05;;
60492;SDS011;46341;51.290;-2.474;2022-12-07T05:53:46;22.90;;;14.38;;
60492;SDS011;46341;51.290;-2.474;2022-12-07T05:56:13;22.80;;;15.05;;
60492;SDS011;46341;51.290;-2.474;2022-12-07T05:58:39;19.33;;;14.95;;
60492;SDS011;46341;51.290;-2.474;2022-12-07T06:01:24;20.80;;;14.52;;
60492;SDS011;46341;51.290;-2.474;2022-12-07T06:03:51;24.92;;;14.73;;
60492;SDS011;46341;51.290;-2.474;2022-12-07T06:06:17;19.33;;;14.13;;
60492;SDS011;46341;51.290;-2.474;2022-12-07T06:08:43;24.73;;;15.15;;
60492;SDS011;46341;51.290;-2.474;2022-12-07T06:11:10;21.08;;;15.82;;
60492;SDS011;46341;51.290;-2.474;2022-12-07T06:13:55;23.70;;;15.50;;
60492;SDS011;46341;51.290;-2.474;2022-12-07T06:16:21;21.80;;;15.25;;
60492;SDS011;46341;51.290;-2.474;2022-12-07T06:18:48;23.33;;;16.85;;
60492;SDS011;46341;51.290;-2.474;2022-12-07T06:21:14;25.38;;;16.58;;
60492;SDS011;46341;51.290;-2.474;2022-12-07T06:23:41;24.40;;;16.70;;
60492;SDS011;46341;51.290;-2.474;2022-12-07T06:26:07;19.70;;;15.40;;
60492;SDS011;46341;51.290;-2.474;2022-12-07T06:28:34;20.77;;;15.00;;
60492;SDS011;46341;51.290;-2.474;2022-12-07T06:31:01;23.27;;;15.25;;
60492;SDS011;46341;51.290;-2.474;2022-12-07T06:33:27;21.88;;;14.93;;
60492;SDS011;46341;51.290;-2.474;2022-12-07T06:35:54;23.70;;;14.80;;
60492;SDS011;46341;51.290;-2.474;2022-12-07T06:38:21;21.95;;;15.07;;
60492;SDS011;46341;51.290;-2.474;2022-12-07T06:40:47;20.40;;;14.90;;
60492;SDS011;46341;51.290;-2.474;2022-12-07T06:43:14;25.20;;;15.93;;
60492;SDS011;46341;51.290;-2.474;2022-12-07T06:45:41;23.45;;;15.10;;
60492;SDS011;46341;51.290;-2.474;2022-12-07T06:48:07;20.13;;;14.13;;
60492;SDS011;46341;51.290;-2.474;2022-12-07T06:50:34;21.95;;;14.23;;
60492;SDS011;46341;51.290;-2.474;2022-12-07T06:53:00;23.48;;;15.18;;
60492;SDS011;46341;51.290;-2.474;2022-12-07T06:55:27;23.85;;;14.95;;
60492;SDS011;46341;51.290;-2.474;2022-12-07T06:57:53;23.08;;;16.00;;
60492;SDS011;46341;51.290;-2.474;2022-12-07T07:00:20;24.05;;;15.18;;
60492;SDS011;46341;51.290;-2.474;2022-12-07T07:02:47;25.75;;;15.35;;
60492;SDS011;46341;51.290;-2.474;2022-12-07T07:05:14;30.35;;;17.80;;
60492;SDS011;46341;51.290;-2.474;2022-12-07T07:07:41;31.02;;;17.55;;
60492;SDS011;46341;51.290;-2.474;2022-12-07T07:10:28;27.77;;;16.65;;
60492;SDS011;46341;51.290;-2.474;2022-12-07T07:12:54;25.35;;;16.15;;
60492;SDS011;46341;51.290;-2.474;2022-12-07T07:15:23;23.65;;;16.08;;
60492;SDS011;46341;51.290;-2.474;2022-12-07T07:17:49;27.75;;;15.75;;
60492;SDS011;46341;51.290;-2.474;2022-12-07T07:20:16;24.67;;;16.38;;
60492;SDS011;46341;51.290;-2.474;2022-12-07T07:22:42;25.48;;;16.02;;
60492;SDS011;46341;51.290;-2.474;2022-12-07T07:25:08;27.77;;;16.17;;
60492;SDS011;46341;51.290;-2.474;2022-12-07T07:27:35;22.52;;;15.57;;
60492;SDS011;46341;51.290;-2.474;2022-12-07T07:30:01;20.20;;;14.27;;
60492;SDS011;46341;51.290;-2.474;2022-12-07T07:32:28;22.38;;;14.25;;
60492;SDS011;46341;51.290;-2.474;2022-12-07T07:34:55;20.15;;;13.90;;
60492;SDS011;46341;51.290;-2.474;2022-12-07T07:37:21;24.33;;;14.85;;
60492;SDS011;46341;51.290;-2.474;2022-12-07T07:39:48;21.55;;;14.90;;
60492;SDS011;46341;51.290;-2.474;2022-12-07T07:42:14;49.30;;;25.25;;
60492;SDS011;46341;51.290;-2.474;2022-12-07T07:44:40;44.80;;;23.00;;
60492;SDS011;46341;51.290;-2.474;2022-12-07T07:47:07;30.55;;;18.67;;
60492;SDS011;46341;51.290;-2.474;2022-12-07T07:49:33;21.73;;;15.05;;
60492;SDS011;46341;51.290;-2.474;2022-12-07T07:52:00;24.65;;;15.23;;
60492;SDS011;46341;51.290;-2.474;2022-12-07T07:54:26;21.48;;;15.45;;
60492;SDS011;46341;51.290;-2.474;2022-12-07T07:56:52;23.15;;;14.45;;
60492;SDS011;46341;51.290;-2.474;2022-12-07T07:59:19;23.10;;;15.60;;
60492;SDS011;46341;51.290;-2.474;2022-12-07T08:01:45;26.15;;;16.88;;
60492;SDS011;46341;51.290;-2.474;2022-12-07T08:04:12;23.50;;;15.82;;
60492;SDS011;46341;51.290;-2.474;2022-12-07T08:06:38;34.22;;;19.50;;
60492;SDS011;46341;51.290;-2.474;2022-12-07T08:09:05;46.38;;;24.08;;
60492;SDS011;46341;51.290;-2.474;2022-12-07T08:11:32;36.15;;;21.42;;
60492;SDS011;46341;51.290;-2.474;2022-12-07T08:13:59;38.33;;;22.50;;
60492;SDS011;46341;51.290;-2.474;2022-12-07T08:16:25;32.28;;;20.33;;
60492;SDS011;46341;51.290;-2.474;2022-12-07T08:18:52;37.53;;;21.05;;
60492;SDS011;46341;51.290;-2.474;2022-12-07T08:21:18;24.50;;;16.42;;
60492;SDS011;46341;51.290;-2.474;2022-12-07T08:23:44;25.30;;;15.82;;
60492;SDS011;46341;51.290;-2.474;2022-12-07T08:26:12;22.75;;;16.60;;
60492;SDS011;46341;51.290;-2.474;2022-12-07T08:28:39;23.23;;;15.45;;
60492;SDS011;46341;51.290;-2.474;2022-12-07T08:31:07;27.60;;;15.85;;
60492;SDS011;46341;51.290;-2.474;2022-12-07T08:33:34;25.25;;;15.85;;
60492;SDS011;46341;51.290;-2.474;2022-12-07T08:36:02;20.65;;;15.80;;
60492;SDS011;46341;51.290;-2.474;2022-12-07T08:38:29;26.95;;;17.05;;
60492;SDS011;46341;51.290;-2.474;2022-12-07T08:40:57;43.58;;;29.50;;
60492;SDS011;46341;51.290;-2.474;2022-12-07T08:43:24;30.13;;;20.10;;
60492;SDS011;46341;51.290;-2.474;2022-12-07T08:46:03;26.33;;;18.67;;
60492;SDS011;46341;51.290;-2.474;2022-12-07T08:48:30;24.15;;;16.92;;
60492;SDS011;46341;51.290;-2.474;2022-12-07T08:50:57;26.23;;;16.65;;
60492;SDS011;46341;51.290;-2.474;2022-12-07T08:53:24;26.13;;;16.15;;
60492;SDS011;46341;51.290;-2.474;2022-12-07T08:55:50;22.88;;;15.40;;
60492;SDS011;46341;51.290;-2.474;2022-12-07T08:58:17;20.45;;;14.63;;
60492;SDS011;46341;51.290;-2.474;2022-12-07T09:00:43;18.52;;;14.07;;
60492;SDS011;46341;51.290;-2.474;2022-12-07T09:03:09;30.00;;;19.60;;
60492;SDS011;46341;51.290;-2.474;2022-12-07T09:05:36;46.90;;;31.35;;
60492;SDS011;46341;51.290;-2.474;2022-12-07T09:08:02;37.67;;;26.27;;
60492;SDS011;46341;51.290;-2.474;2022-12-07T09:10:29;66.70;;;43.38;;
60492;SDS011;46341;51.290;-2.474;2022-12-07T09:12:55;65.72;;;43.45;;
60492;SDS011;46341;51.290;-2.474;2022-12-07T09:15:22;62.88;;;45.28;;
60492;SDS011;46341;51.290;-2.474;2022-12-07T09:17:48;36.47;;;29.08;;
60492;SDS011;46341;51.290;-2.474;2022-12-07T09:20:15;37.10;;;27.65;;
60492;SDS011;46341;51.290;-2.474;2022-12-07T09:22:41;16.52;;;13.73;;
60492;SDS011;46341;51.290;-2.474;2022-12-07T09:25:07;13.38;;;10.95;;
60492;SDS011;46341;51.290;-2.474;2022-12-07T09:27:34;15.10;;;10.75;;
60492;SDS011;46341;51.290;-2.474;2022-12-07T09:30:01;13.88;;;12.20;;
60492;SDS011;46341;51.290;-2.474;2022-12-07T09:32:27;18.17;;;15.23;;
60492;SDS011;46341;51.290;-2.474;2022-12-07T09:34:54;20.77;;;15.65;;
60492;SDS011;46341;51.290;-2.474;2022-12-07T09:37:21;23.33;;;16.07;;
60492;SDS011;46341;51.290;-2.474;2022-12-07T09:39:48;19.08;;;15.68;;
60492;SDS011;46341;51.290;-2.474;2022-12-07T09:42:35;39.20;;;28.17;;
60492;SDS011;46341;51.290;-2.474;2022-12-07T09:45:04;44.90;;;29.23;;
60492;SDS011;46341;51.290;-2.474;2022-12-07T09:47:31;25.88;;;20.30;;
60492;SDS011;46341;51.290;-2.474;2022-12-07T09:50:03;19.63;;;14.63;;
60492;SDS011;46341;51.290;-2.474;2022-12-07T09:52:30;16.73;;;12.88;;
60492;SDS011;46341;51.290;-2.474;2022-12-07T09:55:08;19.75;;;13.13;;
60492;SDS011;46341;51.290;-2.474;2022-12-07T09:57:35;21.60;;;14.00;;
60492;SDS011;46341;51.290;-2.474;2022-12-07T10:00:06;21.48;;;16.08;;
60492;SDS011;46341;51.290;-2.474;2022-12-07T10:02:44;24.88;;;18.60;;
60492;SDS011;46341;51.290;-2.474;2022-12-07T10:05:13;35.83;;;26.55;;
60492;SDS011;46341;51.290;-2.474;2022-12-07T10:07:48;40.38;;;28.88;;
60492;SDS011;46341;51.290;-2.474;2022-12-07T10:10:18;36.75;;;29.23;;
60492;SDS011;46341;51.290;-2.474;2022-12-07T10:15:21;17.58;;;14.10;;
60492;SDS011;46341;51.290;-2.474;2022-12-07T10:17:51;19.48;;;15.07;;
60492;SDS011;46341;51.290;-2.474;2022-12-07T10:20:22;19.63;;;15.82;;
60492;SDS011;46341;51.290;-2.474;2022-12-07T10:25:22;18.05;;;13.48;;
60492;SDS011;46341;51.290;-2.474;2022-12-07T10:35:55;15.40;;;10.80;;
60492;SDS011;46341;51.290;-2.474;2022-12-07T10:38:21;13.52;;;10.05;;
60492;SDS011;46341;51.290;-2.474;2022-12-07T10:40:49;14.05;;;10.30;;
60492;SDS011;46341;51.290;-2.474;2022-12-07T10:43:28;11.13;;;9.57;;
60492;SDS011;46341;51.290;-2.474;2022-12-07T10:51:18;12.43;;;9.00;;
60492;SDS011;46341;51.290;-2.474;2022-12-07T10:54:38;11.82;;;8.73;;
60492;SDS011;46341;51.290;-2.474;2022-12-07T11:01:51;11.57;;;8.05;;
60492;SDS011;46341;51.290;-2.474;2022-12-07T11:04:25;8.70;;;6.22;;
60492;SDS011;46341;51.290;-2.474;2022-12-07T11:07:02;8.18;;;6.40;;
60492;SDS011;46341;51.290;-2.474;2022-12-07T11:17:42;7.82;;;6.10;;
60492;SDS011;46341;51.290;-2.474;2022-12-07T11:20:19;8.07;;;6.30;;
60492;SDS011;46341;51.290;-2.474;2022-12-07T11:38:07;5.40;;;4.85;;
60492;SDS011;46341;51.290;-2.474;2022-12-07T11:40:35;4.85;;;4.10;;
60492;SDS011;46341;51.290;-2.474;2022-12-07T11:43:04;5.53;;;4.35;;
60492;SDS011;46341;51.290;-2.474;2022-12-07T11:45:35;4.43;;;3.88;;
60492;SDS011;46341;51.290;-2.474;2022-12-07T11:48:04;4.70;;;3.65;;
60492;SDS011;46341;51.290;-2.474;2022-12-07T11:50:44;8.38;;;3.78;;
60492;SDS011;46341;51.290;-2.474;2022-12-07T11:53:23;7.13;;;4.38;;
60492;SDS011;46341;51.290;-2.474;2022-12-07T11:55:56;6.00;;;4.82;;
60492;SDS011;46341;51.290;-2.474;2022-12-07T12:03:46;7.43;;;4.28;;
60492;SDS011;46341;51.290;-2.474;2022-12-07T12:06:18;7.10;;;4.38;;
60492;SDS011;46341;51.290;-2.474;2022-12-07T12:08:50;5.80;;;3.83;;
60492;SDS011;46341;51.290;-2.474;2022-12-07T12:22:10;8.25;;;5.57;;
60492;SDS011;46341;51.290;-2.474;2022-12-07T12:24:38;9.45;;;5.80;;
60492;SDS011;46341;51.290;-2.474;2022-12-07T12:27:07;7.97;;;6.10;;
60492;SDS011;46341;51.290;-2.474;2022-12-07T12:29:35;9.60;;;6.40;;
60492;SDS011;46341;51.290;-2.474;2022-12-07T12:34:33;8.95;;;6.10;;
60492;SDS011;46341;51.290;-2.474;2022-12-07T12:36:59;8.25;;;6.00;;
60492;SDS011;46341;51.290;-2.474;2022-12-07T12:39:26;7.57;;;5.70;;
60492;SDS011;46341;51.290;-2.474;2022-12-07T12:41:53;10.63;;;6.00;;
60492;SDS011;46341;51.290;-2.474;2022-12-07T12:51:42;11.73;;;7.40;;
60492;SDS011;46341;51.290;-2.474;2022-12-07T12:54:19;9.18;;;6.55;;
60492;SDS011;46341;51.290;-2.474;2022-12-07T12:59:22;7.88;;;5.35;;
60492;SDS011;46341;51.290;-2.474;2022-12-07T13:02:15;10.65;;;6.30;;
60492;SDS011;46341;51.290;-2.474;2022-12-07T13:04:47;10.30;;;6.33;;
60492;SDS011;46341;51.290;-2.474;2022-12-07T13:07:47;9.27;;;6.07;;
60492;SDS011;46341;51.290;-2.474;2022-12-07T13:10:01;11.13;;;5.57;;
60492;SDS011;46341;51.290;-2.474;2022-12-07T13:12:28;11.77;;;6.00;;
60492;SDS011;46341;51.290;-2.474;2022-12-07T13:14:56;10.10;;;6.65;;
60492;SDS011;46341;51.290;-2.474;2022-12-07T13:19:59;9.63;;;6.60;;
60492;SDS011;46341;51.290;-2.474;2022-12-07T13:28:22;9.73;;;6.80;;
60492;SDS011;46341;51.290;-2.474;2022-12-07T13:30:52;12.98;;;8.93;;
60492;SDS011;46341;51.290;-2.474;2022-12-07T13:33:20;13.25;;;7.90;;
60492;SDS011;46341;51.290;-2.474;2022-12-07T13:35:46;11.23;;;8.40;;
60492;SDS011;46341;51.290;-2.474;2022-12-07T13:38:32;16.25;;;8.45;;
60492;SDS011;46341;51.290;-2.474;2022-12-07T13:41:11;13.43;;;7.75;;
60492;SDS011;46341;51.290;-2.474;2022-12-07T13:43:42;12.05;;;7.55;;
60492;SDS011;46341;51.290;-2.474;2022-12-07T13:46:09;8.73;;;7.00;;
60492;SDS011;46341;51.290;-2.474;2022-12-07T13:48:44;15.13;;;8.27;;
60492;SDS011;46341;51.290;-2.474;2022-12-07T13:51:33;19.27;;;9.77;;
60492;SDS011;46341;51.290;-2.474;2022-12-07T13:54:06;12.15;;;6.57;;
60492;SDS011;46341;51.290;-2.474;2022-12-07T13:56:35;8.98;;;5.78;;
60492;SDS011;46341;51.290;-2.474;2022-12-07T13:59:02;11.68;;;5.50;;
60492;SDS011;46341;51.290;-2.474;2022-12-07T14:01:30;7.95;;;5.68;;
60492;SDS011;46341;51.290;-2.474;2022-12-07T14:04:16;10.07;;;5.05;;
60492;SDS011;46341;51.290;-2.474;2022-12-07T14:06:49;8.13;;;5.80;;
60492;SDS011;46341;51.290;-2.474;2022-12-07T14:11:43;8.38;;;5.07;;
60492;SDS011;46341;51.290;-2.474;2022-12-07T14:14:10;10.93;;;5.32;;
60492;SDS011;46341;51.290;-2.474;2022-12-07T14:16:39;8.55;;;4.90;;
60492;SDS011;46341;51.290;-2.474;2022-12-07T14:19:37;6.60;;;4.90;;
60492;SDS011;46341;51.290;-2.474;2022-12-07T14:22:09;9.93;;;4.40;;
60492;SDS011;46341;51.290;-2.474;2022-12-07T14:24:42;7.28;;;4.55;;
60492;SDS011;46341;51.290;-2.474;2022-12-07T14:27:18;11.05;;;4.90;;
60492;SDS011;46341;51.290;-2.474;2022-12-07T14:29:46;10.63;;;4.10;;
60492;SDS011;46341;51.290;-2.474;2022-12-07T14:34:39;8.35;;;4.20;;
60492;SDS011;46341;51.290;-2.474;2022-12-07T14:37:07;9.50;;;4.90;;
60492;SDS011;46341;51.290;-2.474;2022-12-07T14:39:35;9.82;;;4.97;;
60492;SDS011;46341;51.290;-2.474;2022-12-07T14:42:01;9.82;;;4.78;;
60492;SDS011;46341;51.290;-2.474;2022-12-07T14:44:28;7.47;;;5.00;;
60492;SDS011;46341;51.290;-2.474;2022-12-07T14:47:01;9.75;;;5.03;;
60492;SDS011;46341;51.290;-2.474;2022-12-07T14:49:47;7.43;;;4.97;;
60492;SDS011;46341;51.290;-2.474;2022-12-07T14:52:23;9.02;;;4.43;;
60492;SDS011;46341;51.290;-2.474;2022-12-07T14:55:16;10.82;;;4.72;;
60492;SDS011;46341;51.290;-2.474;2022-12-07T14:57:43;8.68;;;5.15;;
60492;SDS011;46341;51.290;-2.474;2022-12-07T15:00:13;8.35;;;5.82;;
60492;SDS011;46341;51.290;-2.474;2022-12-07T15:02:39;10.48;;;5.70;;
60492;SDS011;46341;51.290;-2.474;2022-12-07T15:05:06;13.95;;;6.10;;
60492;SDS011;46341;51.290;-2.474;2022-12-07T15:07:40;12.27;;;6.15;;
60492;SDS011;46341;51.290;-2.474;2022-12-07T15:10:29;10.35;;;6.30;;
60492;SDS011;46341;51.290;-2.474;2022-12-07T15:12:58;8.50;;;4.78;;
60492;SDS011;46341;51.290;-2.474;2022-12-07T15:15:44;9.95;;;5.32;;
60492;SDS011;46341;51.290;-2.474;2022-12-07T15:18:10;8.32;;;4.93;;
60492;SDS011;46341;51.290;-2.474;2022-12-07T15:20:37;10.77;;;5.93;;
60492;SDS011;46341;51.290;-2.474;2022-12-07T15:23:03;11.18;;;5.38;;
60492;SDS011;46341;51.290;-2.474;2022-12-07T15:25:29;9.60;;;4.60;;
60492;SDS011;46341;51.290;-2.474;2022-12-07T15:27:56;8.65;;;5.03;;
60492;SDS011;46341;51.290;-2.474;2022-12-07T15:30:22;7.07;;;5.00;;
60492;SDS011;46341;51.290;-2.474;2022-12-07T15:32:49;10.70;;;4.97;;
60492;SDS011;46341;51.290;-2.474;2022-12-07T15:35:16;7.57;;;5.53;;
60492;SDS011;46341;51.290;-2.474;2022-12-07T15:37:42;7.72;;;5.45;;
60492;SDS011;46341;51.290;-2.474;2022-12-07T15:40:09;8.60;;;5.20;;
60492;SDS011;46341;51.290;-2.474;2022-12-07T15:42:35;8.50;;;4.90;;
60492;SDS011;46341;51.290;-2.474;2022-12-07T15:45:03;8.07;;;4.85;;
60492;SDS011;46341;51.290;-2.474;2022-12-07T15:47:31;7.00;;;4.82;;
60492;SDS011;46341;51.290;-2.474;2022-12-07T15:50:06;8.90;;;4.82;;
60492;SDS011;46341;51.290;-2.474;2022-12-07T15:52:33;8.00;;;4.45;;
60492;SDS011;46341;51.290;-2.474;2022-12-07T15:54:59;7.22;;;5.20;;
60492;SDS011;46341;51.290;-2.474;2022-12-07T15:57:26;21.05;;;10.85;;
60492;SDS011;46341;51.290;-2.474;2022-12-07T15:59:53;30.65;;;16.33;;
60492;SDS011;46341;51.290;-2.474;2022-12-07T16:02:19;52.70;;;28.63;;
60492;SDS011;46341;51.290;-2.474;2022-12-07T16:04:46;49.35;;;28.30;;
60492;SDS011;46341;51.290;-2.474;2022-12-07T16:07:13;73.57;;;47.78;;
60492;SDS011;46341;51.290;-2.474;2022-12-07T16:09:42;50.22;;;32.95;;
60492;SDS011;46341;51.290;-2.474;2022-12-07T16:12:08;26.27;;;18.17;;
60492;SDS011;46341;51.290;-2.474;2022-12-07T16:14:35;19.10;;;13.00;;
60492;SDS011;46341;51.290;-2.474;2022-12-07T16:17:01;14.20;;;10.00;;
60492;SDS011;46341;51.290;-2.474;2022-12-07T16:19:28;16.25;;;10.93;;
60492;SDS011;46341;51.290;-2.474;2022-12-07T16:21:54;13.82;;;10.05;;
60492;SDS011;46341;51.290;-2.474;2022-12-07T16:24:21;13.40;;;10.93;;
60492;SDS011;46341;51.290;-2.474;2022-12-07T16:26:47;16.75;;;11.73;;
60492;SDS011;46341;51.290;-2.474;2022-12-07T16:29:16;15.32;;;12.20;;
60492;SDS011;46341;51.290;-2.474;2022-12-07T16:31:42;15.10;;;12.98;;
60492;SDS011;46341;51.290;-2.474;2022-12-07T16:34:10;21.15;;;14.55;;